Terminal Aerodrome Forecast
Issued by NWS

Home | Current Version | Previous Version | Text Only | Print | Product List | Glossary On
Versions: 1 2 3 4 5 6 7 8 9 10 11 12 13 14 15 16 17 18 19 20 21
000
FTUS46 KSGX 200520
TAFSNA
TAF
KSNA 200520Z 2006/2106 23003KT P6SM BKN030
     FM201800 22009KT P6SM SCT030
     FM210200 22006KT P6SM SCT030=

USA.gov is the U.S. government's official web portal to all federal, state and local government web resources and services.